Sentry Page Protection

Latest Glasgow METAR Decoded

What is a METAR?

Raw METAR: EGPF 161950Z 26008KT 230V300 9999 BKN046 07/00 Q1016
Time Published: Tue Apr 16 19:50:00 2024

Altimeter: 1016 hPa (30.00 inHg)
Clouds: Broken layer at 4600ft - Reported AGL
Dewpoint: 0°C (32°F)
Temperature: 7°C (45°F)
Visibility: 10km (6.2sm)
Wind: W-260 (variable 230 to 300) at 8kt

Data pulled from AVWX API.

Customise webcam positions

Apply changes